sensor_id;sensor_type;location;lat;lon;timestamp;temperature;humidity
68485;DHT22;55472;50.060;21.960;2023-02-28T00:01:29;-2.90;80.10
68485;DHT22;55472;50.060;21.960;2023-02-28T00:03:56;-2.90;80.00
68485;DHT22;55472;50.060;21.960;2023-02-28T00:06:22;-3.00;80.30
68485;DHT22;55472;50.060;21.960;2023-02-28T00:08:50;-3.10;80.60
68485;DHT22;55472;50.060;21.960;2023-02-28T00:11:16;-3.10;80.90
68485;DHT22;55472;50.060;21.960;2023-02-28T00:13:45;-3.20;81.10
68485;DHT22;55472;50.060;21.960;2023-02-28T00:16:15;-3.20;81.70
68485;DHT22;55472;50.060;21.960;2023-02-28T00:18:44;-3.30;82.10
68485;DHT22;55472;50.060;21.960;2023-02-28T00:21:10;-3.20;82.30
68485;DHT22;55472;50.060;21.960;2023-02-28T00:23:37;-3.20;82.00
68485;DHT22;55472;50.060;21.960;2023-02-28T00:26:04;-3.30;81.80
68485;DHT22;55472;50.060;21.960;2023-02-28T00:28:30;-3.30;81.50
68485;DHT22;55472;50.060;21.960;2023-02-28T00:30:57;-3.30;80.60
68485;DHT22;55472;50.060;21.960;2023-02-28T00:33:23;-3.30;81.10
68485;DHT22;55472;50.060;21.960;2023-02-28T00:35:49;-3.40;81.40
68485;DHT22;55472;50.060;21.960;2023-02-28T00:38:16;-3.40;81.20
68485;DHT22;55472;50.060;21.960;2023-02-28T00:40:42;-3.40;81.00
68485;DHT22;55472;50.060;21.960;2023-02-28T00:43:09;-3.50;81.30
68485;DHT22;55472;50.060;21.960;2023-02-28T00:45:35;-3.60;82.00
68485;DHT22;55472;50.060;21.960;2023-02-28T00:48:01;-3.60;82.60
68485;DHT22;55472;50.060;21.960;2023-02-28T00:50:27;-3.70;83.00
68485;DHT22;55472;50.060;21.960;2023-02-28T00:52:54;-3.70;83.40
68485;DHT22;55472;50.060;21.960;2023-02-28T00:55:20;-3.70;83.80
68485;DHT22;55472;50.060;21.960;2023-02-28T00:57:46;-3.70;84.10
68485;DHT22;55472;50.060;21.960;2023-02-28T01:00:13;-3.80;84.30
68485;DHT22;55472;50.060;21.960;2023-02-28T01:02:39;-3.80;84.70
68485;DHT22;55472;50.060;21.960;2023-02-28T01:05:06;-3.80;84.50
68485;DHT22;55472;50.060;21.960;2023-02-28T01:07:32;-3.80;85.20
68485;DHT22;55472;50.060;21.960;2023-02-28T01:09:58;-3.90;85.30
68485;DHT22;55472;50.060;21.960;2023-02-28T01:12:25;-3.80;85.00
68485;DHT22;55472;50.060;21.960;2023-02-28T01:14:51;-3.80;84.50
68485;DHT22;55472;50.060;21.960;2023-02-28T01:17:17;-3.80;84.30
68485;DHT22;55472;50.060;21.960;2023-02-28T01:19:43;-3.90;84.80
68485;DHT22;55472;50.060;21.960;2023-02-28T01:22:09;-3.90;85.30
68485;DHT22;55472;50.060;21.960;2023-02-28T01:24:36;-3.90;85.70
68485;DHT22;55472;50.060;21.960;2023-02-28T01:27:03;-4.00;85.90
68485;DHT22;55472;50.060;21.960;2023-02-28T01:29:29;-3.90;85.40
68485;DHT22;55472;50.060;21.960;2023-02-28T01:31:55;-4.00;85.50
68485;DHT22;55472;50.060;21.960;2023-02-28T01:34:22;-4.00;85.70
68485;DHT22;55472;50.060;21.960;2023-02-28T01:36:49;-4.00;85.70
68485;DHT22;55472;50.060;21.960;2023-02-28T01:39:15;-4.00;85.50
68485;DHT22;55472;50.060;21.960;2023-02-28T01:41:41;-4.00;85.60
68485;DHT22;55472;50.060;21.960;2023-02-28T01:47:36;-4.10;85.00
68485;DHT22;55472;50.060;21.960;2023-02-28T01:50:08;-4.20;85.40
68485;DHT22;55472;50.060;21.960;2023-02-28T01:52:37;-4.20;86.30
68485;DHT22;55472;50.060;21.960;2023-02-28T01:55:04;-4.30;86.60
68485;DHT22;55472;50.060;21.960;2023-02-28T01:57:35;-4.30;86.90
68485;DHT22;55472;50.060;21.960;2023-02-28T02:00:07;-4.30;87.10
68485;DHT22;55472;50.060;21.960;2023-02-28T02:02:36;-4.40;87.40
68485;DHT22;55472;50.060;21.960;2023-02-28T02:05:09;-4.40;87.00
68485;DHT22;55472;50.060;21.960;2023-02-28T02:07:39;-4.40;87.10
68485;DHT22;55472;50.060;21.960;2023-02-28T02:24:45;-4.40;87.30
68485;DHT22;55472;50.060;21.960;2023-02-28T02:32:35;-4.50;86.10
68485;DHT22;55472;50.060;21.960;2023-02-28T02:35:16;-4.50;86.10
68485;DHT22;55472;50.060;21.960;2023-02-28T02:40:37;-4.60;86.20
68485;DHT22;55472;50.060;21.960;2023-02-28T02:43:11;-4.60;86.80
68485;DHT22;55472;50.060;21.960;2023-02-28T02:45:55;-4.60;87.20
68485;DHT22;55472;50.060;21.960;2023-02-28T02:48:27;-4.70;87.20
68485;DHT22;55472;50.060;21.960;2023-02-28T02:51:01;-4.80;88.00
68485;DHT22;55472;50.060;21.960;2023-02-28T02:53:36;-4.80;88.40
68485;DHT22;55472;50.060;21.960;2023-02-28T02:56:06;-4.80;88.00
68485;DHT22;55472;50.060;21.960;2023-02-28T02:58:37;-4.80;87.80
68485;DHT22;55472;50.060;21.960;2023-02-28T03:01:12;-4.90;87.50
68485;DHT22;55472;50.060;21.960;2023-02-28T03:03:41;-5.00;87.20
68485;DHT22;55472;50.060;21.960;2023-02-28T03:06:08;-5.00;86.70
68485;DHT22;55472;50.060;21.960;2023-02-28T03:08:37;-5.00;86.70
68485;DHT22;55472;50.060;21.960;2023-02-28T03:11:07;-5.00;86.40
68485;DHT22;55472;50.060;21.960;2023-02-28T03:20:03;-5.10;84.60
68485;DHT22;55472;50.060;21.960;2023-02-28T03:31:22;-5.10;83.60
68485;DHT22;55472;50.060;21.960;2023-02-28T03:34:01;-5.20;83.50
68485;DHT22;55472;50.060;21.960;2023-02-28T03:36:35;-5.20;83.60
68485;DHT22;55472;50.060;21.960;2023-02-28T03:39:56;-5.20;83.70
68485;DHT22;55472;50.060;21.960;2023-02-28T03:42:31;-5.20;84.80
68485;DHT22;55472;50.060;21.960;2023-02-28T03:45:08;-5.20;85.10
68485;DHT22;55472;50.060;21.960;2023-02-28T03:47:51;-5.20;84.90
68485;DHT22;55472;50.060;21.960;2023-02-28T03:50:27;-5.20;85.20
68485;DHT22;55472;50.060;21.960;2023-02-28T03:53:15;-5.20;85.10
68485;DHT22;55472;50.060;21.960;2023-02-28T03:55:48;-5.30;85.40
68485;DHT22;55472;50.060;21.960;2023-02-28T04:01:41;-5.30;85.10
68485;DHT22;55472;50.060;21.960;2023-02-28T04:04:10;-5.30;85.00
68485;DHT22;55472;50.060;21.960;2023-02-28T04:06:37;-5.40;84.80
68485;DHT22;55472;50.060;21.960;2023-02-28T04:09:05;-5.40;84.90
68485;DHT22;55472;50.060;21.960;2023-02-28T04:14:04;-5.50;84.70
68485;DHT22;55472;50.060;21.960;2023-02-28T04:16:32;-5.50;84.90
68485;DHT22;55472;50.060;21.960;2023-02-28T04:18:59;-5.50;84.80
68485;DHT22;55472;50.060;21.960;2023-02-28T04:21:33;-5.60;85.00
68485;DHT22;55472;50.060;21.960;2023-02-28T04:24:06;-5.70;85.20
68485;DHT22;55472;50.060;21.960;2023-02-28T04:26:35;-5.70;85.50
68485;DHT22;55472;50.060;21.960;2023-02-28T04:29:04;-5.70;85.20
68485;DHT22;55472;50.060;21.960;2023-02-28T04:31:31;-5.80;85.60
68485;DHT22;55472;50.060;21.960;2023-02-28T04:33:58;-5.70;85.70
68485;DHT22;55472;50.060;21.960;2023-02-28T04:36:24;-5.70;86.10
68485;DHT22;55472;50.060;21.960;2023-02-28T04:38:50;-5.70;85.80
68485;DHT22;55472;50.060;21.960;2023-02-28T04:41:18;-5.70;85.30
68485;DHT22;55472;50.060;21.960;2023-02-28T04:43:44;-5.80;85.20
68485;DHT22;55472;50.060;21.960;2023-02-28T04:46:11;-5.80;85.50
68485;DHT22;55472;50.060;21.960;2023-02-28T04:48:38;-5.80;85.30
68485;DHT22;55472;50.060;21.960;2023-02-28T04:51:11;-5.80;85.60
68485;DHT22;55472;50.060;21.960;2023-02-28T04:53:40;-5.90;85.80
68485;DHT22;55472;50.060;21.960;2023-02-28T04:56:07;-5.90;85.80
68485;DHT22;55472;50.060;21.960;2023-02-28T04:58:35;-6.00;85.90
68485;DHT22;55472;50.060;21.960;2023-02-28T05:01:06;-6.10;86.40
68485;DHT22;55472;50.060;21.960;2023-02-28T05:03:42;-6.00;86.70
68485;DHT22;55472;50.060;21.960;2023-02-28T05:06:11;-6.10;86.60
68485;DHT22;55472;50.060;21.960;2023-02-28T05:08:38;-6.10;86.40
68485;DHT22;55472;50.060;21.960;2023-02-28T05:11:15;-6.10;86.70
68485;DHT22;55472;50.060;21.960;2023-02-28T05:13:43;-6.10;86.40
68485;DHT22;55472;50.060;21.960;2023-02-28T05:16:10;-6.10;86.20
68485;DHT22;55472;50.060;21.960;2023-02-28T05:18:37;-6.10;86.20
68485;DHT22;55472;50.060;21.960;2023-02-28T05:21:04;-6.10;86.60
68485;DHT22;55472;50.060;21.960;2023-02-28T05:23:30;-6.10;86.10
68485;DHT22;55472;50.060;21.960;2023-02-28T05:25:56;-6.10;85.60
68485;DHT22;55472;50.060;21.960;2023-02-28T05:28:23;-6.10;86.00
68485;DHT22;55472;50.060;21.960;2023-02-28T05:30:49;-6.10;86.10
68485;DHT22;55472;50.060;21.960;2023-02-28T05:33:15;-6.10;86.40
68485;DHT22;55472;50.060;21.960;2023-02-28T05:35:42;-6.20;86.10
68485;DHT22;55472;50.060;21.960;2023-02-28T05:38:08;-6.20;86.90
68485;DHT22;55472;50.060;21.960;2023-02-28T05:40:35;-6.20;87.30
68485;DHT22;55472;50.060;21.960;2023-02-28T05:43:01;-6.20;87.70
68485;DHT22;55472;50.060;21.960;2023-02-28T05:45:27;-6.20;88.20
68485;DHT22;55472;50.060;21.960;2023-02-28T05:47:54;-6.20;88.20
68485;DHT22;55472;50.060;21.960;2023-02-28T05:50:21;-6.10;88.60
68485;DHT22;55472;50.060;21.960;2023-02-28T05:52:51;-6.00;88.80
68485;DHT22;55472;50.060;21.960;2023-02-28T05:55:18;-6.00;89.10
68485;DHT22;55472;50.060;21.960;2023-02-28T05:57:44;-5.90;89.40
68485;DHT22;55472;50.060;21.960;2023-02-28T06:00:11;-5.80;89.70
68485;DHT22;55472;50.060;21.960;2023-02-28T06:02:39;-5.70;89.80
68485;DHT22;55472;50.060;21.960;2023-02-28T06:05:16;-5.70;89.80
68485;DHT22;55472;50.060;21.960;2023-02-28T06:07:43;-5.60;90.00
68485;DHT22;55472;50.060;21.960;2023-02-28T06:10:11;-5.50;90.00
68485;DHT22;55472;50.060;21.960;2023-02-28T06:12:38;-5.40;90.30
68485;DHT22;55472;50.060;21.960;2023-02-28T06:15:05;-5.30;90.50
68485;DHT22;55472;50.060;21.960;2023-02-28T06:17:31;-5.10;90.40
68485;DHT22;55472;50.060;21.960;2023-02-28T06:19:58;-5.00;90.10
68485;DHT22;55472;50.060;21.960;2023-02-28T06:22:24;-4.90;89.80
68485;DHT22;55472;50.060;21.960;2023-02-28T06:24:50;-4.80;89.60
68485;DHT22;55472;50.060;21.960;2023-02-28T06:27:18;-4.70;89.40
68485;DHT22;55472;50.060;21.960;2023-02-28T06:29:45;-4.60;89.00
68485;DHT22;55472;50.060;21.960;2023-02-28T06:32:11;-4.50;88.80
68485;DHT22;55472;50.060;21.960;2023-02-28T06:34:37;-4.50;88.70
68485;DHT22;55472;50.060;21.960;2023-02-28T06:37:03;-4.40;88.70
68485;DHT22;55472;50.060;21.960;2023-02-28T06:39:31;-4.20;88.90
68485;DHT22;55472;50.060;21.960;2023-02-28T06:41:57;-4.00;89.00
68485;DHT22;55472;50.060;21.960;2023-02-28T06:44:24;-3.80;88.90
68485;DHT22;55472;50.060;21.960;2023-02-28T06:46:50;-3.60;88.30
68485;DHT22;55472;50.060;21.960;2023-02-28T06:49:17;-3.40;87.40
68485;DHT22;55472;50.060;21.960;2023-02-28T06:51:44;-3.20;87.00
68485;DHT22;55472;50.060;21.960;2023-02-28T06:54:13;-3.00;86.20
68485;DHT22;55472;50.060;21.960;2023-02-28T06:56:39;-2.70;85.50
68485;DHT22;55472;50.060;21.960;2023-02-28T06:59:06;-2.50;84.90
68485;DHT22;55472;50.060;21.960;2023-02-28T07:01:32;-2.30;83.50
68485;DHT22;55472;50.060;21.960;2023-02-28T07:03:59;-2.20;83.00
68485;DHT22;55472;50.060;21.960;2023-02-28T07:06:26;-2.10;81.70
68485;DHT22;55472;50.060;21.960;2023-02-28T07:08:53;-1.90;80.80
68485;DHT22;55472;50.060;21.960;2023-02-28T07:11:21;-1.70;81.00
68485;DHT22;55472;50.060;21.960;2023-02-28T07:13:55;-1.60;80.60
68485;DHT22;55472;50.060;21.960;2023-02-28T07:16:23;-1.40;79.00
68485;DHT22;55472;50.060;21.960;2023-02-28T07:18:52;-1.20;78.80
68485;DHT22;55472;50.060;21.960;2023-02-28T07:21:19;-0.90;78.20
68485;DHT22;55472;50.060;21.960;2023-02-28T07:23:46;-0.60;77.60
68485;DHT22;55472;50.060;21.960;2023-02-28T07:26:15;-0.30;77.10
68485;DHT22;55472;50.060;21.960;2023-02-28T07:28:44;-0.10;76.30
68485;DHT22;55472;50.060;21.960;2023-02-28T07:31:12;0.20;75.90
68485;DHT22;55472;50.060;21.960;2023-02-28T07:33:40;0.50;75.00
68485;DHT22;55472;50.060;21.960;2023-02-28T07:36:11;0.70;73.10
68485;DHT22;55472;50.060;21.960;2023-02-28T07:38:45;0.90;72.80
68485;DHT22;55472;50.060;21.960;2023-02-28T07:41:17;1.20;70.80
68485;DHT22;55472;50.060;21.960;2023-02-28T07:43:44;1.40;70.80
68485;DHT22;55472;50.060;21.960;2023-02-28T07:46:13;1.60;69.20
68485;DHT22;55472;50.060;21.960;2023-02-28T07:48:41;1.90;68.40
68485;DHT22;55472;50.060;21.960;2023-02-28T07:51:08;2.20;67.10
68485;DHT22;55472;50.060;21.960;2023-02-28T07:53:35;2.50;66.80
68485;DHT22;55472;50.060;21.960;2023-02-28T07:56:02;2.70;64.50
68485;DHT22;55472;50.060;21.960;2023-02-28T07:58:30;3.00;65.00
68485;DHT22;55472;50.060;21.960;2023-02-28T08:00:57;3.30;63.00
68485;DHT22;55472;50.060;21.960;2023-02-28T08:03:24;3.40;61.80
68485;DHT22;55472;50.060;21.960;2023-02-28T08:05:51;3.80;61.50
68485;DHT22;55472;50.060;21.960;2023-02-28T08:08:18;4.00;58.90
68485;DHT22;55472;50.060;21.960;2023-02-28T08:10:44;4.40;58.10
68485;DHT22;55472;50.060;21.960;2023-02-28T08:13:10;5.00;57.30
68485;DHT22;55472;50.060;21.960;2023-02-28T08:15:37;5.50;55.10
68485;DHT22;55472;50.060;21.960;2023-02-28T08:18:03;6.00;52.30
68485;DHT22;55472;50.060;21.960;2023-02-28T08:20:29;6.50;49.70
68485;DHT22;55472;50.060;21.960;2023-02-28T08:22:56;7.30;48.00
68485;DHT22;55472;50.060;21.960;2023-02-28T08:25:22;8.70;46.80
68485;DHT22;55472;50.060;21.960;2023-02-28T08:27:51;10.30;42.00
68485;DHT22;55472;50.060;21.960;2023-02-28T08:30:17;12.00;39.10
68485;DHT22;55472;50.060;21.960;2023-02-28T08:32:44;11.80;37.80
68485;DHT22;55472;50.060;21.960;2023-02-28T08:35:10;12.70;37.50
68485;DHT22;55472;50.060;21.960;2023-02-28T08:37:36;14.50;35.90
68485;DHT22;55472;50.060;21.960;2023-02-28T08:40:03;16.20;33.30
68485;DHT22;55472;50.060;21.960;2023-02-28T08:42:30;17.80;30.80
68485;DHT22;55472;50.060;21.960;2023-02-28T08:44:56;18.30;29.40
68485;DHT22;55472;50.060;21.960;2023-02-28T08:47:22;19.10;28.10
68485;DHT22;55472;50.060;21.960;2023-02-28T08:49:48;20.10;27.40
68485;DHT22;55472;50.060;21.960;2023-02-28T08:52:15;18.70;28.00
68485;DHT22;55472;50.060;21.960;2023-02-28T08:54:41;18.50;27.80
68485;DHT22;55472;50.060;21.960;2023-02-28T08:57:07;18.20;28.60
68485;DHT22;55472;50.060;21.960;2023-02-28T08:59:33;19.50;26.80
68485;DHT22;55472;50.060;21.960;2023-02-28T09:02:00;18.20;27.70
68485;DHT22;55472;50.060;21.960;2023-02-28T09:04:26;18.30;27.40
68485;DHT22;55472;50.060;21.960;2023-02-28T09:06:52;17.90;28.50
68485;DHT22;55472;50.060;21.960;2023-02-28T09:09:18;19.50;27.00
68485;DHT22;55472;50.060;21.960;2023-02-28T09:11:45;20.90;26.10
68485;DHT22;55472;50.060;21.960;2023-02-28T09:14:11;21.90;24.70
68485;DHT22;55472;50.060;21.960;2023-02-28T09:16:37;22.90;24.30
68485;DHT22;55472;50.060;21.960;2023-02-28T09:19:03;23.50;23.80
68485;DHT22;55472;50.060;21.960;2023-02-28T09:21:29;24.20;23.70
68485;DHT22;55472;50.060;21.960;2023-02-28T09:23:56;24.90;22.70
68485;DHT22;55472;50.060;21.960;2023-02-28T09:26:27;22.80;23.70
68485;DHT22;55472;50.060;21.960;2023-02-28T09:28:54;20.20;25.70
68485;DHT22;55472;50.060;21.960;2023-02-28T09:31:24;18.50;27.30
68485;DHT22;55472;50.060;21.960;2023-02-28T09:33:54;17.20;28.20
68485;DHT22;55472;50.060;21.960;2023-02-28T09:36:23;16.20;28.90
68485;DHT22;55472;50.060;21.960;2023-02-28T09:38:49;15.10;30.60
68485;DHT22;55472;50.060;21.960;2023-02-28T09:41:32;13.50;32.50
68485;DHT22;55472;50.060;21.960;2023-02-28T09:44:06;12.20;33.40
68485;DHT22;55472;50.060;21.960;2023-02-28T09:46:47;10.20;35.70
68485;DHT22;55472;50.060;21.960;2023-02-28T09:49:17;8.00;40.20
68485;DHT22;55472;50.060;21.960;2023-02-28T09:52:10;8.50;40.90
68485;DHT22;55472;50.060;21.960;2023-02-28T09:54:41;10.10;37.30
68485;DHT22;55472;50.060;21.960;2023-02-28T09:57:17;11.50;35.80
68485;DHT22;55472;50.060;21.960;2023-02-28T10:03:26;12.90;32.80
68485;DHT22;55472;50.060;21.960;2023-02-28T10:06:09;13.30;32.70
68485;DHT22;55472;50.060;21.960;2023-02-28T10:08:50;11.70;34.90
68485;DHT22;55472;50.060;21.960;2023-02-28T10:11:24;11.00;36.30
68485;DHT22;55472;50.060;21.960;2023-02-28T10:14:02;10.40;36.90
68485;DHT22;55472;50.060;21.960;2023-02-28T10:19:19;7.90;40.40
68485;DHT22;55472;50.060;21.960;2023-02-28T10:24:55;6.30;45.30
68485;DHT22;55472;50.060;21.960;2023-02-28T10:27:32;6.50;45.20
68485;DHT22;55472;50.060;21.960;2023-02-28T10:30:00;6.70;44.10
68485;DHT22;55472;50.060;21.960;2023-02-28T10:32:31;6.70;44.20
68485;DHT22;55472;50.060;21.960;2023-02-28T10:35:10;7.10;44.30
68485;DHT22;55472;50.060;21.960;2023-02-28T10:37:48;7.30;42.50
68485;DHT22;55472;50.060;21.960;2023-02-28T10:43:39;6.90;43.10
68485;DHT22;55472;50.060;21.960;2023-02-28T10:48:40;6.00;44.30
68485;DHT22;55472;50.060;21.960;2023-02-28T10:51:12;5.90;45.70
68485;DHT22;55472;50.060;21.960;2023-02-28T10:58:55;6.00;45.20
68485;DHT22;55472;50.060;21.960;2023-02-28T11:01:39;6.30;45.60
68485;DHT22;55472;50.060;21.960;2023-02-28T11:07:18;7.70;43.40
68485;DHT22;55472;50.060;21.960;2023-02-28T11:09:48;7.70;42.30
68485;DHT22;55472;50.060;21.960;2023-02-28T11:14:58;9.00;40.90
68485;DHT22;55472;50.060;21.960;2023-02-28T11:17:28;9.30;39.70
68485;DHT22;55472;50.060;21.960;2023-02-28T11:20:07;9.80;38.80
68485;DHT22;55472;50.060;21.960;2023-02-28T11:22:45;9.80;38.10
68485;DHT22;55472;50.060;21.960;2023-02-28T11:25:24;9.20;40.20
68485;DHT22;55472;50.060;21.960;2023-02-28T11:27:56;9.80;39.90
68485;DHT22;55472;50.060;21.960;2023-02-28T11:30:34;10.50;38.30
68485;DHT22;55472;50.060;21.960;2023-02-28T11:33:18;11.20;37.40
68485;DHT22;55472;50.060;21.960;2023-02-28T11:36:00;11.30;36.10
68485;DHT22;55472;50.060;21.960;2023-02-28T11:38:32;11.50;36.50
68485;DHT22;55472;50.060;21.960;2023-02-28T11:52:29;10.80;36.60
68485;DHT22;55472;50.060;21.960;2023-02-28T12:12:03;9.80;39.60
68485;DHT22;55472;50.060;21.960;2023-02-28T12:18:21;10.10;39.70
68485;DHT22;55472;50.060;21.960;2023-02-28T12:29:23;8.40;41.80
68485;DHT22;55472;50.060;21.960;2023-02-28T12:34:44;8.20;42.40
68485;DHT22;55472;50.060;21.960;2023-02-28T12:37:19;8.50;42.50
68485;DHT22;55472;50.060;21.960;2023-02-28T12:39:55;8.30;41.60
68485;DHT22;55472;50.060;21.960;2023-02-28T12:42:36;7.60;44.40
68485;DHT22;55472;50.060;21.960;2023-02-28T12:45:12;7.90;44.20
68485;DHT22;55472;50.060;21.960;2023-02-28T12:47:43;7.80;42.80
68485;DHT22;55472;50.060;21.960;2023-02-28T12:50:11;7.60;43.70
68485;DHT22;55472;50.060;21.960;2023-02-28T13:07:36;7.90;43.50
68485;DHT22;55472;50.060;21.960;2023-02-28T13:10:12;8.10;43.90
68485;DHT22;55472;50.060;21.960;2023-02-28T13:12:53;8.00;43.30
68485;DHT22;55472;50.060;21.960;2023-02-28T13:15:24;7.90;43.70
68485;DHT22;55472;50.060;21.960;2023-02-28T13:17:56;7.90;43.50
68485;DHT22;55472;50.060;21.960;2023-02-28T13:20:26;7.20;44.60
68485;DHT22;55472;50.060;21.960;2023-02-28T13:22:56;7.00;45.00
68485;DHT22;55472;50.060;21.960;2023-02-28T13:31:14;6.80;45.40
68485;DHT22;55472;50.060;21.960;2023-02-28T13:34:05;7.10;45.60
68485;DHT22;55472;50.060;21.960;2023-02-28T13:36:38;7.50;45.10
68485;DHT22;55472;50.060;21.960;2023-02-28T13:47:41;7.80;43.90
68485;DHT22;55472;50.060;21.960;2023-02-28T13:50:29;7.60;43.40
68485;DHT22;55472;50.060;21.960;2023-02-28T13:56:07;6.60;45.00
68485;DHT22;55472;50.060;21.960;2023-02-28T14:02:17;6.20;46.30
68485;DHT22;55472;50.060;21.960;2023-02-28T14:04:58;6.50;46.30
68485;DHT22;55472;50.060;21.960;2023-02-28T14:07:32;6.30;46.10
68485;DHT22;55472;50.060;21.960;2023-02-28T14:10:06;6.00;46.80
68485;DHT22;55472;50.060;21.960;2023-02-28T14:13:00;5.70;47.70
68485;DHT22;55472;50.060;21.960;2023-02-28T14:18:25;5.40;49.30
68485;DHT22;55472;50.060;21.960;2023-02-28T14:21:08;5.30;47.90
68485;DHT22;55472;50.060;21.960;2023-02-28T14:27:11;4.60;49.80
68485;DHT22;55472;50.060;21.960;2023-02-28T14:32:44;4.00;51.40
68485;DHT22;55472;50.060;21.960;2023-02-28T14:37:51;3.80;52.30
68485;DHT22;55472;50.060;21.960;2023-02-28T14:40:32;3.80;52.60
68485;DHT22;55472;50.060;21.960;2023-02-28T14:43:02;3.80;53.00
68485;DHT22;55472;50.060;21.960;2023-02-28T14:45:34;3.80;52.20
68485;DHT22;55472;50.060;21.960;2023-02-28T14:48:02;3.80;52.50
68485;DHT22;55472;50.060;21.960;2023-02-28T14:50:34;3.80;52.50
68485;DHT22;55472;50.060;21.960;2023-02-28T14:53:02;3.90;52.70
68485;DHT22;55472;50.060;21.960;2023-02-28T14:55:35;4.10;52.30
68485;DHT22;55472;50.060;21.960;2023-02-28T14:58:06;4.30;52.70
68485;DHT22;55472;50.060;21.960;2023-02-28T15:00:34;4.60;52.10
68485;DHT22;55472;50.060;21.960;2023-02-28T15:03:36;4.70;50.70
68485;DHT22;55472;50.060;21.960;2023-02-28T15:06:13;4.80;50.90
68485;DHT22;55472;50.060;21.960;2023-02-28T15:08:41;4.70;49.90
68485;DHT22;55472;50.060;21.960;2023-02-28T15:11:18;4.60;50.00
68485;DHT22;55472;50.060;21.960;2023-02-28T15:16:32;4.30;50.40
68485;DHT22;55472;50.060;21.960;2023-02-28T15:19:30;4.30;51.00
68485;DHT22;55472;50.060;21.960;2023-02-28T15:22:13;4.30;51.90
68485;DHT22;55472;50.060;21.960;2023-02-28T15:24:49;4.10;51.30
68485;DHT22;55472;50.060;21.960;2023-02-28T15:27:31;4.00;51.40
68485;DHT22;55472;50.060;21.960;2023-02-28T15:30:00;3.80;51.80
68485;DHT22;55472;50.060;21.960;2023-02-28T15:32:38;3.60;52.40
68485;DHT22;55472;50.060;21.960;2023-02-28T15:35:28;3.30;53.20
68485;DHT22;55472;50.060;21.960;2023-02-28T15:40:54;2.80;55.10
68485;DHT22;55472;50.060;21.960;2023-02-28T15:43:32;2.70;56.20
68485;DHT22;55472;50.060;21.960;2023-02-28T15:46:09;2.70;56.30
68485;DHT22;55472;50.060;21.960;2023-02-28T15:48:53;2.70;56.40
68485;DHT22;55472;50.060;21.960;2023-02-28T15:54:11;2.70;56.90
68485;DHT22;55472;50.060;21.960;2023-02-28T15:56:55;2.60;57.00
68485;DHT22;55472;50.060;21.960;2023-02-28T15:59:28;2.50;57.40
68485;DHT22;55472;50.060;21.960;2023-02-28T16:02:17;2.50;57.90
68485;DHT22;55472;50.060;21.960;2023-02-28T16:07:33;2.30;58.20
68485;DHT22;55472;50.060;21.960;2023-02-28T16:10:00;2.30;58.50
68485;DHT22;55472;50.060;21.960;2023-02-28T16:12:31;2.20;59.10
68485;DHT22;55472;50.060;21.960;2023-02-28T16:15:02;2.20;59.20
68485;DHT22;55472;50.060;21.960;2023-02-28T16:17:38;2.20;59.10
68485;DHT22;55472;50.060;21.960;2023-02-28T16:20:24;2.20;59.10
68485;DHT22;55472;50.060;21.960;2023-02-28T16:22:53;2.10;59.80
68485;DHT22;55472;50.060;21.960;2023-02-28T16:25:37;2.10;59.50
68485;DHT22;55472;50.060;21.960;2023-02-28T16:28:16;2.00;60.60
68485;DHT22;55472;50.060;21.960;2023-02-28T16:30:46;1.90;61.00
68485;DHT22;55472;50.060;21.960;2023-02-28T16:33:12;1.80;61.80
68485;DHT22;55472;50.060;21.960;2023-02-28T16:35:38;1.70;62.60
68485;DHT22;55472;50.060;21.960;2023-02-28T16:38:04;1.60;63.50
68485;DHT22;55472;50.060;21.960;2023-02-28T16:40:35;1.50;64.40
68485;DHT22;55472;50.060;21.960;2023-02-28T16:43:08;1.40;65.20
68485;DHT22;55472;50.060;21.960;2023-02-28T16:45:47;1.30;64.00
68485;DHT22;55472;50.060;21.960;2023-02-28T16:48:15;1.30;63.40
68485;DHT22;55472;50.060;21.960;2023-02-28T16:50:42;1.20;63.70
68485;DHT22;55472;50.060;21.960;2023-02-28T16:53:11;1.20;64.40
68485;DHT22;55472;50.060;21.960;2023-02-28T16:55:38;1.20;64.80
68485;DHT22;55472;50.060;21.960;2023-02-28T16:58:04;1.10;65.00
68485;DHT22;55472;50.060;21.960;2023-02-28T17:00:32;1.00;65.50
68485;DHT22;55472;50.060;21.960;2023-02-28T17:02:58;0.90;65.10
68485;DHT22;55472;50.060;21.960;2023-02-28T17:05:25;0.80;65.40
68485;DHT22;55472;50.060;21.960;2023-02-28T17:07:54;0.70;66.30
68485;DHT22;55472;50.060;21.960;2023-02-28T17:10:23;0.70;67.20
68485;DHT22;55472;50.060;21.960;2023-02-28T17:12:51;0.60;67.60
68485;DHT22;55472;50.060;21.960;2023-02-28T17:15:19;0.60;67.40
68485;DHT22;55472;50.060;21.960;2023-02-28T17:17:47;0.60;67.50
68485;DHT22;55472;50.060;21.960;2023-02-28T17:20:20;0.50;67.50
68485;DHT22;55472;50.060;21.960;2023-02-28T17:22:51;0.40;67.40
68485;DHT22;55472;50.060;21.960;2023-02-28T17:25:19;0.30;67.20
68485;DHT22;55472;50.060;21.960;2023-02-28T17:27:46;0.30;67.70
68485;DHT22;55472;50.060;21.960;2023-02-28T17:30:19;0.20;68.00
68485;DHT22;55472;50.060;21.960;2023-02-28T17:32:50;0.10;68.10
68485;DHT22;55472;50.060;21.960;2023-02-28T17:35:16;0.10;68.90
68485;DHT22;55472;50.060;21.960;2023-02-28T17:37:42;0.10;69.40
68485;DHT22;55472;50.060;21.960;2023-02-28T17:40:17;0.00;69.70
68485;DHT22;55472;50.060;21.960;2023-02-28T17:42:47;0.00;69.70
68485;DHT22;55472;50.060;21.960;2023-02-28T17:45:15;0.00;69.50
68485;DHT22;55472;50.060;21.960;2023-02-28T17:47:43;0.00;69.10
68485;DHT22;55472;50.060;21.960;2023-02-28T17:50:18;0.00;68.70
68485;DHT22;55472;50.060;21.960;2023-02-28T17:52:46;0.00;68.70
68485;DHT22;55472;50.060;21.960;2023-02-28T17:55:16;-0.10;68.20
68485;DHT22;55472;50.060;21.960;2023-02-28T17:57:44;-0.20;68.60
68485;DHT22;55472;50.060;21.960;2023-02-28T18:00:15;-0.30;69.10
68485;DHT22;55472;50.060;21.960;2023-02-28T18:02:43;-0.30;69.50
68485;DHT22;55472;50.060;21.960;2023-02-28T18:05:11;-0.40;70.00
68485;DHT22;55472;50.060;21.960;2023-02-28T18:07:38;-0.50;70.60
68485;DHT22;55472;50.060;21.960;2023-02-28T18:10:06;-0.50;71.10
68485;DHT22;55472;50.060;21.960;2023-02-28T18:12:38;-0.50;71.30
68485;DHT22;55472;50.060;21.960;2023-02-28T18:15:05;-0.60;71.60
68485;DHT22;55472;50.060;21.960;2023-02-28T18:17:31;-0.60;72.20
68485;DHT22;55472;50.060;21.960;2023-02-28T18:20:26;-0.60;72.30
68485;DHT22;55472;50.060;21.960;2023-02-28T18:26:27;-0.60;72.40
68485;DHT22;55472;50.060;21.960;2023-02-28T18:28:53;-0.70;72.10
68485;DHT22;55472;50.060;21.960;2023-02-28T18:31:19;-0.70;72.10
68485;DHT22;55472;50.060;21.960;2023-02-28T18:40:58;-0.80;73.30
68485;DHT22;55472;50.060;21.960;2023-02-28T18:46:56;-0.90;73.40
68485;DHT22;55472;50.060;21.960;2023-02-28T18:49:36;-1.00;73.10
68485;DHT22;55472;50.060;21.960;2023-02-28T18:52:03;-1.00;73.00
68485;DHT22;55472;50.060;21.960;2023-02-28T18:54:29;-1.00;72.70